VQPR Airport Information

Runway Information
Runway 15 Length 6445 ft width 95 ft
Elevation 7355 ft Threshold 0 ft Heading 151
Runway 33 Length 6445 ft Width 95 ft
Elevation 7328 ft Threshold 0 ft Heading 331
Airport Frequencies
Airport Navaids
Type NDB Name Paro Frequency 410 KHZ
Type VOR Name Paro Frequency 108400 KHZ
Airport Weather Information & NOTAM
ADDS - METARS form results

(0241 UTC 23 August 2019)
Data provider http://aviationweather.gov/metar/data/
 
METAR text: VQPR 230230Z VRB02KT 9999 SCT030 20/15 Q1021
Conditions at: VQPR (PARO , BT) observed 0230 UTC 23 August 2019
Temperature: 20.0°C (68°F)
Dewpoint: 15.0°C (59°F) [RH = 73%]
Pressure (altimeter): 30.15 inches Hg (1021.0 mb)
Winds: variable direction winds at 2 MPH (2 knots; 1.0 m/s)
Visibility: 6 or more miles (10+ km)
Ceiling: at least 12,000 feet AGL
Clouds: scattered clouds at 3000 feet AGL
Weather: no significant weather observed at this time

METAR text: VQPR 230200Z 17004KT 9999 SCT030 18/14 Q1021
Conditions at: VQPR (PARO , BT) observed 0200 UTC 23 August 2019
Temperature: 18.0°C (64°F)
Dewpoint: 14.0°C (57°F) [RH = 77%]
Pressure (altimeter): 30.15 inches Hg (1021.0 mb)
Winds: from the S (170 degrees) at 5 MPH (4 knots; 2.1 m/s)
Visibility: 6 or more miles (10+ km)
Ceiling: at least 12,000 feet AGL
Clouds: scattered clouds at 3000 feet AGL
Weather: no significant weather observed at this time